Jamshedpur, Sonari Airport (VEJS)

NameSonari Airport
CityJamshedpur
CountryIndia
ICAOVEJS
IATAIXW
Altitude146 m
CoordinatesGoogle Map
Live Air TrafficLiveATC.net
METARVEJS 171100Z 00000KT 3500 HZ NSC 25/06 Q1012
2019-01-17 11:00:00 Wind: North (0°) 0 m/s - Visibility: 3500 m - Weather: Haze - Temperature: 25 °C - Dew point: 6 °C - Humidity: 29.6% - Pressure: 1012 hPa
Statistics

The table below shows the detailed information of all flights to/from Jamshedpur, Sonari Airport (VEJS).